sensor_id;sensor_type;location;lat;lon;timestamp;P1;P2;P0
83484;PMS5003;73420;32.678;-85.380;2024-03-22T00:01:24;69;68;
83484;PMS5003;73420;32.678;-85.380;2024-03-22T00:03:49;71;70;
83484;PMS5003;73420;32.678;-85.380;2024-03-22T00:06:15;70;67;
83484;PMS5003;73420;32.678;-85.380;2024-03-22T00:08:41;69;67;
83484;PMS5003;73420;32.678;-85.380;2024-03-22T00:11:07;71;69;
83484;PMS5003;73420;32.678;-85.380;2024-03-22T00:13:32;71;70;
83484;PMS5003;73420;32.678;-85.380;2024-03-22T00:15:57;71;70;
83484;PMS5003;73420;32.678;-85.380;2024-03-22T00:18:22;61;60;
83484;PMS5003;73420;32.678;-85.380;2024-03-22T00:20:48;65;62;
83484;PMS5003;73420;32.678;-85.380;2024-03-22T00:23:14;65;63;
83484;PMS5003;73420;32.678;-85.380;2024-03-22T00:25:40;63;61;
83484;PMS5003;73420;32.678;-85.380;2024-03-22T00:28:05;61;58;
83484;PMS5003;73420;32.678;-85.380;2024-03-22T00:30:30;63;63;
83484;PMS5003;73420;32.678;-85.380;2024-03-22T00:32:55;62;60;
83484;PMS5003;73420;32.678;-85.380;2024-03-22T00:35:21;60;57;
83484;PMS5003;73420;32.678;-85.380;2024-03-22T00:37:47;56;53;
83484;PMS5003;73420;32.678;-85.380;2024-03-22T00:40:13;55;55;
83484;PMS5003;73420;32.678;-85.380;2024-03-22T00:42:38;53;52;
83484;PMS5003;73420;32.678;-85.380;2024-03-22T00:45:04;55;53;
83484;PMS5003;73420;32.678;-85.380;2024-03-22T00:47:29;55;55;
83484;PMS5003;73420;32.678;-85.380;2024-03-22T00:49:55;58;57;
83484;PMS5003;73420;32.678;-85.380;2024-03-22T00:52:20;51;50;
83484;PMS5003;73420;32.678;-85.380;2024-03-22T00:54:45;57;55;
83484;PMS5003;73420;32.678;-85.380;2024-03-22T00:57:11;56;55;
83484;PMS5003;73420;32.678;-85.380;2024-03-22T00:59:37;56;53;
83484;PMS5003;73420;32.678;-85.380;2024-03-22T01:02:03;57;53;
83484;PMS5003;73420;32.678;-85.380;2024-03-22T01:04:27;58;56;
83484;PMS5003;73420;32.678;-85.380;2024-03-22T01:06:53;62;61;
83484;PMS5003;73420;32.678;-85.380;2024-03-22T01:09:18;52;51;
83484;PMS5003;73420;32.678;-85.380;2024-03-22T01:11:43;56;54;
83484;PMS5003;73420;32.678;-85.380;2024-03-22T01:14:09;58;55;
83484;PMS5003;73420;32.678;-85.380;2024-03-22T01:16:34;64;64;
83484;PMS5003;73420;32.678;-85.380;2024-03-22T01:19:00;63;61;
83484;PMS5003;73420;32.678;-85.380;2024-03-22T01:21:25;64;61;
83484;PMS5003;73420;32.678;-85.380;2024-03-22T01:23:52;77;69;
83484;PMS5003;73420;32.678;-85.380;2024-03-22T01:26:16;78;73;
83484;PMS5003;73420;32.678;-85.380;2024-03-22T01:28:41;64;62;
83484;PMS5003;73420;32.678;-85.380;2024-03-22T01:31:07;70;67;
83484;PMS5003;73420;32.678;-85.380;2024-03-22T01:33:32;66;65;
83484;PMS5003;73420;32.678;-85.380;2024-03-22T01:35:58;73;71;
83484;PMS5003;73420;32.678;-85.380;2024-03-22T01:38:23;67;66;
83484;PMS5003;73420;32.678;-85.380;2024-03-22T01:40:49;64;61;
83484;PMS5003;73420;32.678;-85.380;2024-03-22T01:43:14;68;66;
83484;PMS5003;73420;32.678;-85.380;2024-03-22T01:45:40;71;70;
83484;PMS5003;73420;32.678;-85.380;2024-03-22T01:48:05;74;72;
83484;PMS5003;73420;32.678;-85.380;2024-03-22T01:50:31;68;66;
83484;PMS5003;73420;32.678;-85.380;2024-03-22T01:52:56;76;73;
83484;PMS5003;73420;32.678;-85.380;2024-03-22T01:55:22;76;72;
83484;PMS5003;73420;32.678;-85.380;2024-03-22T01:57:48;65;64;
83484;PMS5003;73420;32.678;-85.380;2024-03-22T02:00:14;70;68;
83484;PMS5003;73420;32.678;-85.380;2024-03-22T02:02:39;70;68;
83484;PMS5003;73420;32.678;-85.380;2024-03-22T02:07:29;73;72;
83484;PMS5003;73420;32.678;-85.380;2024-03-22T02:09:55;71;70;
83484;PMS5003;73420;32.678;-85.380;2024-03-22T02:12:20;65;63;
83484;PMS5003;73420;32.678;-85.380;2024-03-22T02:14:46;69;67;
83484;PMS5003;73420;32.678;-85.380;2024-03-22T02:17:10;71;70;
83484;PMS5003;73420;32.678;-85.380;2024-03-22T02:19:36;67;66;
83484;PMS5003;73420;32.678;-85.380;2024-03-22T02:22:01;72;70;
83484;PMS5003;73420;32.678;-85.380;2024-03-22T02:24:27;77;72;
83484;PMS5003;73420;32.678;-85.380;2024-03-22T02:26:54;68;68;
83484;PMS5003;73420;32.678;-85.380;2024-03-22T02:29:18;73;70;
83484;PMS5003;73420;32.678;-85.380;2024-03-22T02:31:44;74;73;
83484;PMS5003;73420;32.678;-85.380;2024-03-22T02:34:09;74;72;
83484;PMS5003;73420;32.678;-85.380;2024-03-22T02:36:35;68;67;
83484;PMS5003;73420;32.678;-85.380;2024-03-22T02:39:01;73;70;
83484;PMS5003;73420;32.678;-85.380;2024-03-22T02:41:26;67;66;
83484;PMS5003;73420;32.678;-85.380;2024-03-22T02:43:51;77;75;
83484;PMS5003;73420;32.678;-85.380;2024-03-22T02:46:16;73;71;
83484;PMS5003;73420;32.678;-85.380;2024-03-22T02:48:41;73;68;
83484;PMS5003;73420;32.678;-85.380;2024-03-22T02:51:07;71;70;
83484;PMS5003;73420;32.678;-85.380;2024-03-22T02:53:32;75;73;
83484;PMS5003;73420;32.678;-85.380;2024-03-22T02:55:59;71;69;
83484;PMS5003;73420;32.678;-85.380;2024-03-22T02:58:23;78;73;
83484;PMS5003;73420;32.678;-85.380;2024-03-22T03:00:49;72;69;
83484;PMS5003;73420;32.678;-85.380;2024-03-22T03:03:14;70;68;
83484;PMS5003;73420;32.678;-85.380;2024-03-22T03:05:41;74;70;
83484;PMS5003;73420;32.678;-85.380;2024-03-22T03:08:06;71;67;
83484;PMS5003;73420;32.678;-85.380;2024-03-22T03:10:32;68;66;
83484;PMS5003;73420;32.678;-85.380;2024-03-22T03:12:57;69;67;
83484;PMS5003;73420;32.678;-85.380;2024-03-22T03:15:23;68;64;
83484;PMS5003;73420;32.678;-85.380;2024-03-22T03:17:48;67;66;
83484;PMS5003;73420;32.678;-85.380;2024-03-22T03:20:13;66;64;
83484;PMS5003;73420;32.678;-85.380;2024-03-22T03:22:39;69;67;
83484;PMS5003;73420;32.678;-85.380;2024-03-22T03:25:04;64;64;
83484;PMS5003;73420;32.678;-85.380;2024-03-22T03:27:30;63;62;
83484;PMS5003;73420;32.678;-85.380;2024-03-22T03:29:54;60;59;
83484;PMS5003;73420;32.678;-85.380;2024-03-22T03:32:20;61;60;
83484;PMS5003;73420;32.678;-85.380;2024-03-22T03:34:45;58;57;
83484;PMS5003;73420;32.678;-85.380;2024-03-22T03:37:10;69;66;
83484;PMS5003;73420;32.678;-85.380;2024-03-22T03:39:36;59;57;
83484;PMS5003;73420;32.678;-85.380;2024-03-22T03:42:03;57;55;
83484;PMS5003;73420;32.678;-85.380;2024-03-22T03:44:26;57;57;
83484;PMS5003;73420;32.678;-85.380;2024-03-22T03:46:51;60;60;
83484;PMS5003;73420;32.678;-85.380;2024-03-22T03:49:17;62;61;
83484;PMS5003;73420;32.678;-85.380;2024-03-22T03:51:42;62;60;
83484;PMS5003;73420;32.678;-85.380;2024-03-22T03:54:07;59;57;
83484;PMS5003;73420;32.678;-85.380;2024-03-22T03:56:32;60;59;
83484;PMS5003;73420;32.678;-85.380;2024-03-22T03:58:58;81;75;
83484;PMS5003;73420;32.678;-85.380;2024-03-22T04:01:24;90;86;
83484;PMS5003;73420;32.678;-85.380;2024-03-22T04:03:50;78;74;
83484;PMS5003;73420;32.678;-85.380;2024-03-22T04:06:15;89;86;
83484;PMS5003;73420;32.678;-85.380;2024-03-22T04:08:41;105;103;
83484;PMS5003;73420;32.678;-85.380;2024-03-22T04:11:06;115;111;
83484;PMS5003;73420;32.678;-85.380;2024-03-22T04:13:31;99;97;
83484;PMS5003;73420;32.678;-85.380;2024-03-22T04:15:58;90;89;
83484;PMS5003;73420;32.678;-85.380;2024-03-22T04:18:22;89;85;
83484;PMS5003;73420;32.678;-85.380;2024-03-22T04:23:13;113;109;
83484;PMS5003;73420;32.678;-85.380;2024-03-22T04:25:39;117;115;
83484;PMS5003;73420;32.678;-85.380;2024-03-22T04:28:05;128;123;
83484;PMS5003;73420;32.678;-85.380;2024-03-22T04:30:30;134;125;
83484;PMS5003;73420;32.678;-85.380;2024-03-22T04:32:55;124;119;
83484;PMS5003;73420;32.678;-85.380;2024-03-22T04:35:20;127;121;
83484;PMS5003;73420;32.678;-85.380;2024-03-22T04:37:45;123;121;
83484;PMS5003;73420;32.678;-85.380;2024-03-22T04:40:11;122;122;
83484;PMS5003;73420;32.678;-85.380;2024-03-22T04:42:36;116;114;
83484;PMS5003;73420;32.678;-85.380;2024-03-22T04:45:02;140;128;
83484;PMS5003;73420;32.678;-85.380;2024-03-22T04:47:27;125;121;
83484;PMS5003;73420;32.678;-85.380;2024-03-22T04:49:53;130;126;
83484;PMS5003;73420;32.678;-85.380;2024-03-22T04:52:18;109;106;
83484;PMS5003;73420;32.678;-85.380;2024-03-22T04:54:43;131;126;
83484;PMS5003;73420;32.678;-85.380;2024-03-22T04:57:08;128;126;
83484;PMS5003;73420;32.678;-85.380;2024-03-22T04:59:33;114;110;
83484;PMS5003;73420;32.678;-85.380;2024-03-22T05:01:59;121;116;
83484;PMS5003;73420;32.678;-85.380;2024-03-22T05:04:25;113;103;
83484;PMS5003;73420;32.678;-85.380;2024-03-22T05:06:50;109;107;
83484;PMS5003;73420;32.678;-85.380;2024-03-22T05:09:15;108;106;
83484;PMS5003;73420;32.678;-85.380;2024-03-22T05:11:40;106;102;
83484;PMS5003;73420;32.678;-85.380;2024-03-22T05:14:06;110;106;
83484;PMS5003;73420;32.678;-85.380;2024-03-22T05:16:31;122;119;
83484;PMS5003;73420;32.678;-85.380;2024-03-22T05:18:56;111;108;
83484;PMS5003;73420;32.678;-85.380;2024-03-22T05:21:22;119;113;
83484;PMS5003;73420;32.678;-85.380;2024-03-22T05:23:47;119;114;
83484;PMS5003;73420;32.678;-85.380;2024-03-22T05:26:13;132;129;
83484;PMS5003;73420;32.678;-85.380;2024-03-22T05:28:38;132;128;
83484;PMS5003;73420;32.678;-85.380;2024-03-22T05:31:03;123;122;
83484;PMS5003;73420;32.678;-85.380;2024-03-22T05:33:28;139;131;
83484;PMS5003;73420;32.678;-85.380;2024-03-22T05:35:55;131;128;
83484;PMS5003;73420;32.678;-85.380;2024-03-22T05:38:19;120;118;
83484;PMS5003;73420;32.678;-85.380;2024-03-22T05:40:45;139;136;
83484;PMS5003;73420;32.678;-85.380;2024-03-22T05:43:11;148;142;
83484;PMS5003;73420;32.678;-85.380;2024-03-22T05:45:36;141;138;
83484;PMS5003;73420;32.678;-85.380;2024-03-22T05:48:01;117;112;
83484;PMS5003;73420;32.678;-85.380;2024-03-22T05:50:26;127;123;
83484;PMS5003;73420;32.678;-85.380;2024-03-22T05:52:52;119;117;
83484;PMS5003;73420;32.678;-85.380;2024-03-22T05:55:17;116;115;
83484;PMS5003;73420;32.678;-85.380;2024-03-22T05:57:42;125;121;
83484;PMS5003;73420;32.678;-85.380;2024-03-22T06:00:08;119;118;
83484;PMS5003;73420;32.678;-85.380;2024-03-22T06:02:33;118;112;
83484;PMS5003;73420;32.678;-85.380;2024-03-22T06:05:03;120;117;
83484;PMS5003;73420;32.678;-85.380;2024-03-22T06:07:24;117;115;
83484;PMS5003;73420;32.678;-85.380;2024-03-22T06:09:50;129;127;
83484;PMS5003;73420;32.678;-85.380;2024-03-22T06:12:16;134;131;
83484;PMS5003;73420;32.678;-85.380;2024-03-22T06:14:41;138;136;
83484;PMS5003;73420;32.678;-85.380;2024-03-22T06:17:07;173;168;
83484;PMS5003;73420;32.678;-85.380;2024-03-22T06:19:32;200;194;
83484;PMS5003;73420;32.678;-85.380;2024-03-22T06:21:57;229;227;
83484;PMS5003;73420;32.678;-85.380;2024-03-22T06:24:31;220;212;
83484;PMS5003;73420;32.678;-85.380;2024-03-22T06:26:48;221;217;
83484;PMS5003;73420;32.678;-85.380;2024-03-22T06:29:17;231;227;
83484;PMS5003;73420;32.678;-85.380;2024-03-22T06:31:39;232;228;
83484;PMS5003;73420;32.678;-85.380;2024-03-22T06:34:05;236;229;
83484;PMS5003;73420;32.678;-85.380;2024-03-22T06:36:31;232;228;
83484;PMS5003;73420;32.678;-85.380;2024-03-22T06:38:56;198;193;
83484;PMS5003;73420;32.678;-85.380;2024-03-22T06:41:22;161;157;
83484;PMS5003;73420;32.678;-85.380;2024-03-22T06:43:47;142;138;
83484;PMS5003;73420;32.678;-85.380;2024-03-22T06:46:12;148;145;
83484;PMS5003;73420;32.678;-85.380;2024-03-22T06:48:38;130;124;
83484;PMS5003;73420;32.678;-85.380;2024-03-22T06:51:04;113;108;
83484;PMS5003;73420;32.678;-85.380;2024-03-22T06:53:29;108;105;
83484;PMS5003;73420;32.678;-85.380;2024-03-22T06:55:54;113;111;
83484;PMS5003;73420;32.678;-85.380;2024-03-22T06:58:20;116;113;
83484;PMS5003;73420;32.678;-85.380;2024-03-22T07:00:46;122;116;
83484;PMS5003;73420;32.678;-85.380;2024-03-22T07:03:11;123;119;
83484;PMS5003;73420;32.678;-85.380;2024-03-22T07:05:40;115;115;
83484;PMS5003;73420;32.678;-85.380;2024-03-22T07:08:03;130;122;
83484;PMS5003;73420;32.678;-85.380;2024-03-22T07:10:28;111;109;
83484;PMS5003;73420;32.678;-85.380;2024-03-22T07:12:54;117;115;
83484;PMS5003;73420;32.678;-85.380;2024-03-22T07:15:20;112;106;
83484;PMS5003;73420;32.678;-85.380;2024-03-22T07:17:45;123;121;
83484;PMS5003;73420;32.678;-85.380;2024-03-22T07:20:11;147;141;
83484;PMS5003;73420;32.678;-85.380;2024-03-22T07:22:36;146;143;
83484;PMS5003;73420;32.678;-85.380;2024-03-22T07:25:02;145;141;
83484;PMS5003;73420;32.678;-85.380;2024-03-22T07:27:27;147;147;
83484;PMS5003;73420;32.678;-85.380;2024-03-22T07:29:53;169;161;
83484;PMS5003;73420;32.678;-85.380;2024-03-22T07:32:19;155;149;
83484;PMS5003;73420;32.678;-85.380;2024-03-22T07:34:45;175;169;
83484;PMS5003;73420;32.678;-85.380;2024-03-22T07:37:10;146;144;
83484;PMS5003;73420;32.678;-85.380;2024-03-22T07:39:35;133;126;
83484;PMS5003;73420;32.678;-85.380;2024-03-22T07:42:01;142;141;
83484;PMS5003;73420;32.678;-85.380;2024-03-22T07:44:26;138;135;
83484;PMS5003;73420;32.678;-85.380;2024-03-22T07:46:51;147;145;
83484;PMS5003;73420;32.678;-85.380;2024-03-22T07:49:17;150;147;
83484;PMS5003;73420;32.678;-85.380;2024-03-22T07:51:42;140;135;
83484;PMS5003;73420;32.678;-85.380;2024-03-22T07:54:08;129;127;
83484;PMS5003;73420;32.678;-85.380;2024-03-22T07:56:33;137;136;
83484;PMS5003;73420;32.678;-85.380;2024-03-22T07:58:59;126;122;
83484;PMS5003;73420;32.678;-85.380;2024-03-22T08:01:24;110;108;
83484;PMS5003;73420;32.678;-85.380;2024-03-22T08:03:51;97;94;
83484;PMS5003;73420;32.678;-85.380;2024-03-22T08:06:16;91;89;
83484;PMS5003;73420;32.678;-85.380;2024-03-22T08:08:42;88;87;
83484;PMS5003;73420;32.678;-85.380;2024-03-22T08:11:07;85;83;
83484;PMS5003;73420;32.678;-85.380;2024-03-22T08:13:32;87;85;
83484;PMS5003;73420;32.678;-85.380;2024-03-22T08:15:57;101;100;
83484;PMS5003;73420;32.678;-85.380;2024-03-22T08:18:24;92;90;
83484;PMS5003;73420;32.678;-85.380;2024-03-22T08:20:49;91;89;
83484;PMS5003;73420;32.678;-85.380;2024-03-22T08:23:14;87;86;
83484;PMS5003;73420;32.678;-85.380;2024-03-22T08:25:40;81;80;
83484;PMS5003;73420;32.678;-85.380;2024-03-22T08:28:06;73;71;
83484;PMS5003;73420;32.678;-85.380;2024-03-22T08:30:32;68;67;
83484;PMS5003;73420;32.678;-85.380;2024-03-22T08:32:57;67;64;
83484;PMS5003;73420;32.678;-85.380;2024-03-22T08:35:22;70;69;
83484;PMS5003;73420;32.678;-85.380;2024-03-22T08:37:47;75;74;
83484;PMS5003;73420;32.678;-85.380;2024-03-22T08:40:13;78;73;
83484;PMS5003;73420;32.678;-85.380;2024-03-22T08:42:40;76;73;
83484;PMS5003;73420;32.678;-85.380;2024-03-22T08:45:05;82;79;
83484;PMS5003;73420;32.678;-85.380;2024-03-22T08:47:30;95;94;
83484;PMS5003;73420;32.678;-85.380;2024-03-22T08:49:56;108;108;
83484;PMS5003;73420;32.678;-85.380;2024-03-22T08:52:21;115;114;
83484;PMS5003;73420;32.678;-85.380;2024-03-22T08:54:47;110;109;
83484;PMS5003;73420;32.678;-85.380;2024-03-22T08:57:12;118;115;
83484;PMS5003;73420;32.678;-85.380;2024-03-22T08:59:38;106;100;
83484;PMS5003;73420;32.678;-85.380;2024-03-22T09:02:04;91;88;
83484;PMS5003;73420;32.678;-85.380;2024-03-22T09:04:29;103;100;
83484;PMS5003;73420;32.678;-85.380;2024-03-22T09:09:20;110;107;
83484;PMS5003;73420;32.678;-85.380;2024-03-22T09:11:46;108;108;
83484;PMS5003;73420;32.678;-85.380;2024-03-22T09:14:11;122;116;
83484;PMS5003;73420;32.678;-85.380;2024-03-22T09:16:37;117;113;
83484;PMS5003;73420;32.678;-85.380;2024-03-22T09:19:03;110;107;
83484;PMS5003;73420;32.678;-85.380;2024-03-22T09:21:29;85;82;
83484;PMS5003;73420;32.678;-85.380;2024-03-22T09:23:54;63;62;
83484;PMS5003;73420;32.678;-85.380;2024-03-22T09:26:20;70;69;
83484;PMS5003;73420;32.678;-85.380;2024-03-22T09:28:45;66;65;
83484;PMS5003;73420;32.678;-85.380;2024-03-22T09:31:11;64;63;
83484;PMS5003;73420;32.678;-85.380;2024-03-22T09:33:36;65;64;
83484;PMS5003;73420;32.678;-85.380;2024-03-22T09:36:02;64;63;
83484;PMS5003;73420;32.678;-85.380;2024-03-22T09:38:27;58;57;
83484;PMS5003;73420;32.678;-85.380;2024-03-22T09:40:53;67;65;
83484;PMS5003;73420;32.678;-85.380;2024-03-22T09:43:18;57;57;
83484;PMS5003;73420;32.678;-85.380;2024-03-22T09:45:44;61;61;
83484;PMS5003;73420;32.678;-85.380;2024-03-22T09:48:09;67;64;
83484;PMS5003;73420;32.678;-85.380;2024-03-22T09:50:35;72;70;
83484;PMS5003;73420;32.678;-85.380;2024-03-22T09:53:01;72;70;
83484;PMS5003;73420;32.678;-85.380;2024-03-22T09:55:26;85;84;
83484;PMS5003;73420;32.678;-85.380;2024-03-22T09:57:52;79;75;
83484;PMS5003;73420;32.678;-85.380;2024-03-22T10:00:17;70;68;
83484;PMS5003;73420;32.678;-85.380;2024-03-22T10:02:42;72;68;
83484;PMS5003;73420;32.678;-85.380;2024-03-22T10:05:07;64;64;
83484;PMS5003;73420;32.678;-85.380;2024-03-22T10:07:33;56;56;
83484;PMS5003;73420;32.678;-85.380;2024-03-22T10:09:58;55;51;
83484;PMS5003;73420;32.678;-85.380;2024-03-22T10:12:23;56;56;
83484;PMS5003;73420;32.678;-85.380;2024-03-22T10:14:49;59;56;
83484;PMS5003;73420;32.678;-85.380;2024-03-22T10:17:15;56;55;
83484;PMS5003;73420;32.678;-85.380;2024-03-22T10:19:41;56;54;
83484;PMS5003;73420;32.678;-85.380;2024-03-22T10:22:05;60;56;
83484;PMS5003;73420;32.678;-85.380;2024-03-22T10:24:31;55;52;
83484;PMS5003;73420;32.678;-85.380;2024-03-22T10:26:57;54;54;
83484;PMS5003;73420;32.678;-85.380;2024-03-22T10:29:22;60;59;
83484;PMS5003;73420;32.678;-85.380;2024-03-22T10:31:47;58;54;
83484;PMS5003;73420;32.678;-85.380;2024-03-22T10:34:13;54;53;
83484;PMS5003;73420;32.678;-85.380;2024-03-22T10:36:38;57;55;
83484;PMS5003;73420;32.678;-85.380;2024-03-22T10:39:04;50;50;
83484;PMS5003;73420;32.678;-85.380;2024-03-22T10:41:29;55;53;
83484;PMS5003;73420;32.678;-85.380;2024-03-22T10:43:55;50;48;
83484;PMS5003;73420;32.678;-85.380;2024-03-22T10:46:20;48;47;
83484;PMS5003;73420;32.678;-85.380;2024-03-22T10:48:45;54;54;
83484;PMS5003;73420;32.678;-85.380;2024-03-22T10:51:11;47;46;
83484;PMS5003;73420;32.678;-85.380;2024-03-22T10:53:36;50;50;
83484;PMS5003;73420;32.678;-85.380;2024-03-22T10:56:02;50;48;
83484;PMS5003;73420;32.678;-85.380;2024-03-22T10:58:28;48;48;
83484;PMS5003;73420;32.678;-85.380;2024-03-22T11:00:54;49;49;
83484;PMS5003;73420;32.678;-85.380;2024-03-22T11:03:19;53;51;
83484;PMS5003;73420;32.678;-85.380;2024-03-22T11:05:45;53;51;
83484;PMS5003;73420;32.678;-85.380;2024-03-22T11:08:10;45;45;
83484;PMS5003;73420;32.678;-85.380;2024-03-22T11:10:35;46;46;
83484;PMS5003;73420;32.678;-85.380;2024-03-22T11:13:01;45;44;
83484;PMS5003;73420;32.678;-85.380;2024-03-22T11:15:28;44;44;
83484;PMS5003;73420;32.678;-85.380;2024-03-22T11:17:51;47;45;
83484;PMS5003;73420;32.678;-85.380;2024-03-22T11:20:17;54;52;
83484;PMS5003;73420;32.678;-85.380;2024-03-22T11:22:42;55;52;
83484;PMS5003;73420;32.678;-85.380;2024-03-22T11:25:08;51;49;
83484;PMS5003;73420;32.678;-85.380;2024-03-22T11:27:33;54;51;
83484;PMS5003;73420;32.678;-85.380;2024-03-22T11:29:58;48;47;
83484;PMS5003;73420;32.678;-85.380;2024-03-22T11:32:24;50;48;
83484;PMS5003;73420;32.678;-85.380;2024-03-22T11:34:50;52;49;
83484;PMS5003;73420;32.678;-85.380;2024-03-22T11:37:16;65;63;
83484;PMS5003;73420;32.678;-85.380;2024-03-22T11:39:42;61;59;
83484;PMS5003;73420;32.678;-85.380;2024-03-22T11:42:08;54;52;
83484;PMS5003;73420;32.678;-85.380;2024-03-22T11:44:33;68;66;
83484;PMS5003;73420;32.678;-85.380;2024-03-22T11:46:59;79;77;
83484;PMS5003;73420;32.678;-85.380;2024-03-22T11:49:24;83;83;
83484;PMS5003;73420;32.678;-85.380;2024-03-22T11:51:51;76;73;
83484;PMS5003;73420;32.678;-85.380;2024-03-22T11:54:14;67;64;
83484;PMS5003;73420;32.678;-85.380;2024-03-22T11:56:40;54;53;
83484;PMS5003;73420;32.678;-85.380;2024-03-22T11:59:06;50;49;
83484;PMS5003;73420;32.678;-85.380;2024-03-22T12:01:31;60;59;
83484;PMS5003;73420;32.678;-85.380;2024-03-22T12:03:56;58;55;
83484;PMS5003;73420;32.678;-85.380;2024-03-22T12:06:21;63;63;
83484;PMS5003;73420;32.678;-85.380;2024-03-22T12:08:46;62;62;
83484;PMS5003;73420;32.678;-85.380;2024-03-22T12:11:12;61;61;
83484;PMS5003;73420;32.678;-85.380;2024-03-22T12:13:37;68;68;
83484;PMS5003;73420;32.678;-85.380;2024-03-22T12:16:03;81;78;
83484;PMS5003;73420;32.678;-85.380;2024-03-22T12:18:28;79;77;
83484;PMS5003;73420;32.678;-85.380;2024-03-22T12:20:54;73;73;
83484;PMS5003;73420;32.678;-85.380;2024-03-22T12:23:19;75;75;
83484;PMS5003;73420;32.678;-85.380;2024-03-22T12:25:45;78;76;
83484;PMS5003;73420;32.678;-85.380;2024-03-22T12:28:10;73;72;
83484;PMS5003;73420;32.678;-85.380;2024-03-22T12:30:36;72;72;
83484;PMS5003;73420;32.678;-85.380;2024-03-22T12:33:04;66;64;
83484;PMS5003;73420;32.678;-85.380;2024-03-22T12:35:26;75;74;
83484;PMS5003;73420;32.678;-85.380;2024-03-22T12:37:52;65;61;
83484;PMS5003;73420;32.678;-85.380;2024-03-22T12:40:17;66;65;
83484;PMS5003;73420;32.678;-85.380;2024-03-22T12:42:42;75;73;
83484;PMS5003;73420;32.678;-85.380;2024-03-22T12:45:08;76;75;
83484;PMS5003;73420;32.678;-85.380;2024-03-22T12:47:33;75;73;
83484;PMS5003;73420;32.678;-85.380;2024-03-22T12:49:58;66;65;
83484;PMS5003;73420;32.678;-85.380;2024-03-22T12:52:23;54;54;
83484;PMS5003;73420;32.678;-85.380;2024-03-22T12:54:49;47;46;
83484;PMS5003;73420;32.678;-85.380;2024-03-22T12:57:15;56;56;
83484;PMS5003;73420;32.678;-85.380;2024-03-22T12:59:41;50;48;
83484;PMS5003;73420;32.678;-85.380;2024-03-22T13:02:06;56;54;
83484;PMS5003;73420;32.678;-85.380;2024-03-22T13:04:31;64;62;
83484;PMS5003;73420;32.678;-85.380;2024-03-22T13:06:57;57;54;
83484;PMS5003;73420;32.678;-85.380;2024-03-22T13:09:22;57;57;
83484;PMS5003;73420;32.678;-85.380;2024-03-22T13:11:48;43;42;
83484;PMS5003;73420;32.678;-85.380;2024-03-22T13:14:14;40;39;
83484;PMS5003;73420;32.678;-85.380;2024-03-22T13:16:39;43;41;
83484;PMS5003;73420;32.678;-85.380;2024-03-22T13:19:05;44;44;
83484;PMS5003;73420;32.678;-85.380;2024-03-22T13:21:31;45;45;
83484;PMS5003;73420;32.678;-85.380;2024-03-22T13:23:56;57;55;
83484;PMS5003;73420;32.678;-85.380;2024-03-22T13:26:21;56;55;
83484;PMS5003;73420;32.678;-85.380;2024-03-22T13:28:46;48;45;
83484;PMS5003;73420;32.678;-85.380;2024-03-22T13:31:12;50;50;
83484;PMS5003;73420;32.678;-85.380;2024-03-22T13:33:37;55;54;
83484;PMS5003;73420;32.678;-85.380;2024-03-22T13:36:03;68;66;
83484;PMS5003;73420;32.678;-85.380;2024-03-22T13:38:29;72;69;
83484;PMS5003;73420;32.678;-85.380;2024-03-22T13:40:54;63;61;
83484;PMS5003;73420;32.678;-85.380;2024-03-22T13:43:19;58;57;
83484;PMS5003;73420;32.678;-85.380;2024-03-22T13:45:45;63;62;
83484;PMS5003;73420;32.678;-85.380;2024-03-22T13:48:10;66;66;
83484;PMS5003;73420;32.678;-85.380;2024-03-22T13:50:35;65;64;
83484;PMS5003;73420;32.678;-85.380;2024-03-22T13:53:00;55;54;
83484;PMS5003;73420;32.678;-85.380;2024-03-22T13:55:26;47;47;
83484;PMS5003;73420;32.678;-85.380;2024-03-22T13:57:51;53;51;
83484;PMS5003;73420;32.678;-85.380;2024-03-22T14:00:16;60;59;
83484;PMS5003;73420;32.678;-85.380;2024-03-22T14:02:41;67;67;
83484;PMS5003;73420;32.678;-85.380;2024-03-22T14:05:07;61;60;
83484;PMS5003;73420;32.678;-85.380;2024-03-22T14:07:32;70;69;
83484;PMS5003;73420;32.678;-85.380;2024-03-22T14:10:03;61;60;
83484;PMS5003;73420;32.678;-85.380;2024-03-22T14:12:24;57;56;
83484;PMS5003;73420;32.678;-85.380;2024-03-22T14:14:49;41;41;
83484;PMS5003;73420;32.678;-85.380;2024-03-22T14:17:15;46;45;
83484;PMS5003;73420;32.678;-85.380;2024-03-22T14:19:40;38;36;
83484;PMS5003;73420;32.678;-85.380;2024-03-22T14:22:06;52;51;
83484;PMS5003;73420;32.678;-85.380;2024-03-22T14:24:31;67;67;
83484;PMS5003;73420;32.678;-85.380;2024-03-22T14:26:56;55;52;
83484;PMS5003;73420;32.678;-85.380;2024-03-22T14:29:22;52;51;
83484;PMS5003;73420;32.678;-85.380;2024-03-22T14:31:48;59;56;
83484;PMS5003;73420;32.678;-85.380;2024-03-22T14:34:13;79;78;
83484;PMS5003;73420;32.678;-85.380;2024-03-22T14:36:39;81;79;
83484;PMS5003;73420;32.678;-85.380;2024-03-22T14:39:04;53;51;
83484;PMS5003;73420;32.678;-85.380;2024-03-22T14:41:29;51;49;
83484;PMS5003;73420;32.678;-85.380;2024-03-22T14:43:55;44;44;
83484;PMS5003;73420;32.678;-85.380;2024-03-22T14:46:21;57;57;
83484;PMS5003;73420;32.678;-85.380;2024-03-22T14:48:46;51;49;
83484;PMS5003;73420;32.678;-85.380;2024-03-22T14:51:11;54;50;
83484;PMS5003;73420;32.678;-85.380;2024-03-22T14:53:36;62;61;
83484;PMS5003;73420;32.678;-85.380;2024-03-22T14:56:02;56;56;
83484;PMS5003;73420;32.678;-85.380;2024-03-22T14:58:27;52;51;
83484;PMS5003;73420;32.678;-85.380;2024-03-22T15:00:52;72;71;
83484;PMS5003;73420;32.678;-85.380;2024-03-22T15:03:17;50;47;
83484;PMS5003;73420;32.678;-85.380;2024-03-22T15:05:43;38;38;
83484;PMS5003;73420;32.678;-85.380;2024-03-22T15:08:09;42;41;
83484;PMS5003;73420;32.678;-85.380;2024-03-22T15:10:35;30;30;
83484;PMS5003;73420;32.678;-85.380;2024-03-22T15:13:00;40;39;
83484;PMS5003;73420;32.678;-85.380;2024-03-22T15:15:26;37;37;
83484;PMS5003;73420;32.678;-85.380;2024-03-22T15:17:51;38;38;
83484;PMS5003;73420;32.678;-85.380;2024-03-22T15:20:17;47;47;
83484;PMS5003;73420;32.678;-85.380;2024-03-22T15:22:42;48;47;
83484;PMS5003;73420;32.678;-85.380;2024-03-22T15:25:07;49;47;
83484;PMS5003;73420;32.678;-85.380;2024-03-22T15:27:32;28;28;
83484;PMS5003;73420;32.678;-85.380;2024-03-22T15:29:58;30;30;
83484;PMS5003;73420;32.678;-85.380;2024-03-22T15:32:23;27;27;